createdAt,value
2018-06-22T00:01:00.204Z,64.50
2018-06-22T00:02:03.599Z,64.30
2018-06-22T00:03:06.963Z,64.30
2018-06-22T00:04:10.319Z,64.30
2018-06-22T00:05:14.707Z,64.40
2018-06-22T00:06:19.495Z,64.30
2018-06-22T00:08:25.943Z,64.40
2018-06-22T00:09:29.295Z,64.00
2018-06-22T00:10:34.092Z,64.00
2018-06-22T00:11:37.523Z,63.70
2018-06-22T00:12:40.881Z,63.60
2018-06-22T00:13:44.244Z,63.20
2018-06-22T00:15:51.632Z,63.40
2018-06-22T00:16:55.037Z,62.90
2018-06-22T00:17:58.387Z,62.80
2018-06-22T00:19:01.783Z,62.60
2018-06-22T00:21:10.114Z,62.40
2018-06-22T00:22:13.504Z,62.60
2018-06-22T00:23:16.855Z,62.70
2018-06-22T00:24:20.215Z,62.80
2018-06-22T00:25:24.634Z,62.90
2018-06-22T00:26:28.715Z,62.80
2018-06-22T00:27:32.071Z,62.80
2018-06-22T00:28:35.480Z,62.70
2018-06-22T00:29:38.863Z,62.40
2018-06-22T00:30:44.207Z,62.30
2018-06-22T00:31:47.587Z,62.20
2018-06-22T00:32:50.935Z,62.30
2018-06-22T00:33:54.287Z,62.30
2018-06-22T00:34:57.651Z,62.30
2018-06-22T00:36:02.127Z,62.20
2018-06-22T00:37:05.801Z,62.10
2018-06-22T00:39:12.247Z,62.10
2018-06-22T00:40:16.574Z,62.20
2018-06-22T00:41:20.969Z,62.20
2018-06-22T00:42:24.335Z,62.10
2018-06-22T00:43:27.709Z,62.10
2018-06-22T00:44:31.063Z,62.10
2018-06-22T00:45:35.466Z,62.00
2018-06-22T00:46:38.839Z,62.00
2018-06-22T00:47:42.188Z,62.00
2018-06-22T00:48:45.550Z,62.00
2018-06-22T00:49:48.899Z,61.90
2018-06-22T00:50:53.510Z,61.90
2018-06-22T00:51:56.935Z,61.80
2018-06-22T00:53:00.290Z,61.80
2018-06-22T00:54:11.792Z,61.80
2018-06-22T00:55:16.320Z,61.80
2018-06-22T00:56:21.001Z,61.80
2018-06-22T00:57:24.390Z,61.80
2018-06-22T00:58:27.736Z,61.80
2018-06-22T00:59:31.119Z,61.90
2018-06-22T01:00:35.592Z,62.40
2018-06-22T01:01:39.036Z,62.00
2018-06-22T01:02:42.432Z,61.70
2018-06-22T01:03:45.991Z,61.40
2018-06-22T01:04:49.348Z,61.00
2018-06-22T01:05:53.635Z,61.00
2018-06-22T01:06:57.039Z,61.20
2018-06-22T01:08:00.388Z,62.10
2018-06-22T01:09:05.139Z,61.40
2018-06-22T01:10:09.457Z,61.20
2018-06-22T01:11:13.727Z,61.10
2018-06-22T01:12:17.120Z,61.10
2018-06-22T01:13:20.482Z,60.90
2018-06-22T01:14:23.819Z,60.80
2018-06-22T01:15:29.063Z,60.90
2018-06-22T01:17:35.499Z,61.80
2018-06-22T01:18:38.843Z,61.10
2018-06-22T01:19:42.203Z,61.30
2018-06-22T01:20:47.229Z,61.50
2018-06-22T01:22:53.663Z,61.30
2018-06-22T01:23:57.007Z,61.30
2018-06-22T01:25:00.359Z,61.50
2018-06-22T01:26:05.040Z,61.50
2018-06-22T01:27:08.439Z,61.60
2018-06-22T01:28:11.823Z,62.20
2018-06-22T01:29:20.498Z,61.50
2018-06-22T01:30:24.870Z,61.60
2018-06-22T01:31:28.955Z,61.60
2018-06-22T01:32:32.351Z,61.60
2018-06-22T01:33:35.749Z,61.60
2018-06-22T01:34:39.124Z,61.70
2018-06-22T01:35:43.493Z,61.50
2018-06-22T01:36:46.895Z,61.90
2018-06-22T01:37:50.759Z,62.00
2018-06-22T01:38:54.170Z,61.90
2018-06-22T01:39:57.576Z,61.80
2018-06-22T01:41:02.022Z,61.80
2018-06-22T01:42:05.479Z,61.80
2018-06-22T01:43:08.863Z,61.60
2018-06-22T01:44:12.267Z,61.70
2018-06-22T01:45:16.768Z,61.90
2018-06-22T01:47:24.023Z,62.00
2018-06-22T01:48:27.420Z,62.20
2018-06-22T01:49:30.860Z,62.20
2018-06-22T01:50:36.274Z,62.20
2018-06-22T01:51:39.687Z,62.20
2018-06-22T01:52:43.077Z,62.30
2018-06-22T01:53:46.795Z,62.30
2018-06-22T01:54:50.194Z,62.40
2018-06-22T01:55:54.647Z,62.40
2018-06-22T01:56:58.060Z,62.40
2018-06-22T01:58:01.444Z,62.20
2018-06-22T01:59:05.007Z,62.20
2018-06-22T02:01:13.289Z,62.40
2018-06-22T02:03:19.863Z,62.40
2018-06-22T02:04:23.300Z,62.50
2018-06-22T02:05:27.650Z,62.50
2018-06-22T02:07:34.246Z,62.70
2018-06-22T02:10:45.078Z,63.30
2018-06-22T02:11:48.583Z,63.40
2018-06-22T02:12:51.967Z,62.90
2018-06-22T02:13:55.355Z,63.10
2018-06-22T02:14:58.736Z,63.20
2018-06-22T02:16:03.312Z,63.40
2018-06-22T02:17:06.746Z,63.60
2018-06-22T02:18:10.143Z,63.70
2018-06-22T02:21:21.780Z,64.10
2018-06-22T02:22:25.199Z,64.20
2018-06-22T02:23:28.579Z,64.30
2018-06-22T02:24:31.979Z,64.30
2018-06-22T02:25:36.454Z,64.30
2018-06-22T02:26:39.895Z,64.50
2018-06-22T02:31:56.392Z,65.10
2018-06-22T02:32:59.771Z,65.10
2018-06-22T02:34:03.159Z,65.30
2018-06-22T02:35:07.569Z,65.20
2018-06-22T02:36:11.974Z,65.10
2018-06-22T02:39:21.592Z,65.50
2018-06-22T02:40:26.965Z,65.60
2018-06-22T02:42:33.550Z,65.60
2018-06-22T02:45:44.184Z,65.50
2018-06-22T02:48:53.792Z,65.50
2018-06-22T02:49:57.187Z,65.70
2018-06-22T02:51:01.710Z,65.70
2018-06-22T02:52:05.141Z,65.90
2018-06-22T02:53:08.550Z,66.00
2018-06-22T02:54:11.936Z,66.50
2018-06-22T02:55:16.358Z,66.10
2018-06-22T02:56:20.792Z,66.80
2018-06-22T02:57:24.211Z,66.20
2018-06-22T02:58:27.607Z,66.30
2018-06-22T02:59:30.991Z,67.00
2018-06-22T03:00:35.491Z,66.40
2018-06-22T03:02:42.420Z,67.20
2018-06-22T03:03:45.946Z,66.60
2018-06-22T03:04:49.325Z,66.70
2018-06-22T03:05:53.840Z,66.60
2018-06-22T03:10:07.670Z,66.90
2018-06-22T03:11:12.195Z,66.80
2018-06-22T03:15:25.936Z,67.70
2018-06-22T03:16:30.730Z,67.70
2018-06-22T03:17:34.171Z,68.00
2018-06-22T03:18:37.563Z,68.10
2018-06-22T03:19:41.027Z,68.20
2018-06-22T03:20:46.091Z,68.30
2018-06-22T03:21:49.499Z,68.40
2018-06-22T03:22:52.907Z,68.40
2018-06-22T03:23:56.287Z,68.60
2018-06-22T03:24:59.687Z,68.60
2018-06-22T03:26:04.044Z,69.40
2018-06-22T03:27:07.435Z,68.70
2018-06-22T03:31:22.924Z,69.00
2018-06-22T03:32:26.351Z,69.20
2018-06-22T03:33:29.726Z,69.30
2018-06-22T03:34:33.113Z,69.40
2018-06-22T03:35:37.924Z,69.50
2018-06-22T03:36:41.331Z,69.60
2018-06-22T03:37:44.711Z,69.70
2018-06-22T03:38:48.093Z,69.80
2018-06-22T03:39:51.472Z,69.80
2018-06-22T03:40:56.027Z,70.30
2018-06-22T03:44:05.614Z,69.80
2018-06-22T03:45:09.877Z,70.10
2018-06-22T03:47:17.343Z,69.80
2018-06-22T03:48:20.755Z,70.50
2018-06-22T03:49:24.196Z,70.50
2018-06-22T03:50:28.747Z,70.70
2018-06-22T03:51:32.155Z,70.80
2018-06-22T03:52:35.550Z,71.00
2018-06-22T03:56:48.970Z,71.60
2018-06-22T03:57:52.403Z,71.60
2018-06-22T03:58:55.792Z,71.90
2018-06-22T03:59:59.169Z,72.00
2018-06-22T04:01:03.692Z,71.90
2018-06-22T04:02:07.155Z,71.70
2018-06-22T04:03:10.531Z,71.70
2018-06-22T04:05:17.918Z,71.90
2018-06-22T04:06:22.400Z,71.80
2018-06-22T04:07:25.825Z,71.80
2018-06-22T04:09:32.347Z,71.70
2018-06-22T04:10:37.169Z,71.60
2018-06-22T04:11:40.576Z,71.50
2018-06-22T04:12:44.000Z,71.70
2018-06-22T04:13:47.374Z,71.90
2018-06-22T04:14:50.751Z,71.80
2018-06-22T04:16:58.258Z,71.80
2018-06-22T04:18:01.724Z,72.10
2018-06-22T04:21:13.681Z,72.00
2018-06-22T04:22:17.072Z,71.90
2018-06-22T04:23:20.467Z,72.10
2018-06-22T04:24:23.885Z,72.20
2018-06-22T04:25:28.191Z,72.30
2018-06-22T04:26:31.579Z,72.50
2018-06-22T04:29:41.143Z,72.80
2018-06-22T04:30:45.617Z,72.90
2018-06-22T04:31:49.023Z,72.90
2018-06-22T04:33:55.537Z,73.00
2018-06-22T04:34:58.927Z,72.80
2018-06-22T04:36:04.033Z,72.90
2018-06-22T04:37:07.460Z,72.90
2018-06-22T04:38:10.843Z,72.90
2018-06-22T04:39:14.231Z,72.80
2018-06-22T04:40:18.738Z,72.90
2018-06-22T04:41:23.095Z,72.90
2018-06-22T04:42:26.493Z,72.90
2018-06-22T04:43:29.877Z,72.80
2018-06-22T04:44:33.311Z,72.90
2018-06-22T04:45:37.664Z,72.70
2018-06-22T04:46:41.071Z,72.80
2018-06-22T04:47:44.478Z,72.90
2018-06-22T04:48:47.867Z,72.80
2018-06-22T04:49:51.472Z,72.80
2018-06-22T04:50:55.869Z,72.90
2018-06-22T04:51:59.267Z,72.90
2018-06-22T04:53:02.653Z,72.90
2018-06-22T04:54:06.044Z,73.10
2018-06-22T04:55:10.541Z,73.10
2018-06-22T04:56:15.049Z,72.80
2018-06-22T04:57:18.479Z,72.60
2018-06-22T04:58:21.883Z,72.50
2018-06-22T04:59:25.279Z,72.50
2018-06-22T05:00:29.795Z,72.60
2018-06-22T05:01:33.251Z,72.80
2018-06-22T05:03:39.801Z,73.40
2018-06-22T05:04:43.159Z,73.30
2018-06-22T05:05:47.723Z,73.30
2018-06-22T05:06:51.352Z,73.50
2018-06-22T05:07:54.719Z,73.80
2018-06-22T05:08:58.100Z,73.70
2018-06-22T05:10:01.487Z,73.80
2018-06-22T05:11:06.250Z,74.10
2018-06-22T05:12:09.677Z,74.30
2018-06-22T05:13:13.196Z,74.40
2018-06-22T05:14:16.787Z,74.60
2018-06-22T05:15:21.243Z,74.50
2018-06-22T05:16:25.417Z,74.40
2018-06-22T05:17:28.840Z,74.30
2018-06-22T05:20:40.250Z,74.40
2018-06-22T05:21:43.688Z,74.50
2018-06-22T05:22:47.087Z,74.70
2018-06-22T05:25:57.745Z,74.80
2018-06-22T05:27:01.183Z,74.70
2018-06-22T05:28:04.760Z,74.50
2018-06-22T05:29:08.167Z,74.60
2018-06-22T05:30:12.572Z,74.80
2018-06-22T05:31:17.254Z,74.90
2018-06-22T05:32:20.724Z,75.10
2018-06-22T05:33:24.096Z,75.30
2018-06-22T05:34:27.480Z,75.30
2018-06-22T05:35:32.320Z,75.30
2018-06-22T05:38:41.893Z,75.40
2018-06-22T05:39:45.275Z,75.30
2018-06-22T05:41:52.607Z,75.30
2018-06-22T05:42:56.016Z,75.00
2018-06-22T05:44:00.670Z,75.10
2018-06-22T05:45:05.824Z,75.10
2018-06-22T05:46:10.283Z,75.40
2018-06-22T05:47:13.708Z,75.40
2018-06-22T05:48:17.156Z,75.70
2018-06-22T05:49:20.535Z,76.00
2018-06-22T05:50:25.572Z,75.70
2018-06-22T05:51:29.407Z,77.20
2018-06-22T05:52:32.799Z,76.80
2018-06-22T05:53:36.221Z,76.90
2018-06-22T05:54:39.611Z,77.50
2018-06-22T05:55:44.156Z,77.80
2018-06-22T05:56:47.677Z,77.90
2018-06-22T05:57:51.083Z,78.10
2018-06-22T05:58:54.487Z,78.10
2018-06-22T05:59:57.871Z,77.80
2018-06-22T06:01:02.282Z,77.80
2018-06-22T06:03:08.824Z,78.00
2018-06-22T06:04:12.259Z,78.00
2018-06-22T06:05:16.883Z,77.80
2018-06-22T06:06:21.526Z,78.60
2018-06-22T06:07:24.931Z,77.60
2018-06-22T06:08:28.315Z,77.40
2018-06-22T06:09:31.745Z,76.80
2018-06-22T06:11:39.803Z,77.20
2018-06-22T06:12:43.252Z,77.40
2018-06-22T06:13:46.584Z,77.40
2018-06-22T06:14:50.059Z,77.50
2018-06-22T06:16:57.435Z,77.80
2018-06-22T06:18:00.855Z,77.80
2018-06-22T06:19:04.419Z,77.70
2018-06-22T06:20:09.121Z,77.90
2018-06-22T06:21:13.652Z,78.10
2018-06-22T06:22:17.091Z,78.10
2018-06-22T06:24:23.568Z,77.40
2018-06-22T06:25:28.098Z,77.50
2018-06-22T06:26:31.583Z,77.60
2018-06-22T06:27:35.291Z,77.70
2018-06-22T06:28:38.720Z,77.70
2018-06-22T06:31:49.143Z,77.50
2018-06-22T06:32:52.527Z,77.30
2018-06-22T06:33:56.232Z,77.30
2018-06-22T06:34:59.627Z,77.70
2018-06-22T06:36:04.997Z,77.40
2018-06-22T06:37:08.398Z,77.50
2018-06-22T06:38:11.783Z,77.20
2018-06-22T06:39:15.155Z,76.80
2018-06-22T06:40:19.541Z,76.50
2018-06-22T06:42:26.575Z,76.20
2018-06-22T06:43:29.959Z,76.20
2018-06-22T06:44:33.347Z,76.50
2018-06-22T06:45:37.768Z,76.30
2018-06-22T06:46:41.263Z,76.10
2018-06-22T06:47:44.643Z,76.40
2018-06-22T06:48:48.441Z,76.60
2018-06-22T06:49:51.827Z,76.40
2018-06-22T06:50:56.273Z,76.40
2018-06-22T06:51:59.723Z,76.40
2018-06-22T06:53:03.104Z,76.10
2018-06-22T06:54:06.525Z,75.70
2018-06-22T06:55:11.021Z,75.50
2018-06-22T06:56:15.513Z,75.40
2018-06-22T06:57:18.973Z,75.00
2018-06-22T06:58:22.356Z,74.60
2018-06-22T06:59:25.744Z,74.30
2018-06-22T07:00:30.294Z,73.80
2018-06-22T07:02:36.863Z,73.70
2018-06-22T07:03:40.219Z,71.90
2018-06-22T07:04:43.603Z,72.00
2018-06-22T07:05:48.022Z,71.20
2018-06-22T07:06:51.436Z,71.30
2018-06-22T07:07:55.127Z,71.00
2018-06-22T07:08:58.517Z,70.90
2018-06-22T07:10:02.080Z,70.90
2018-06-22T07:11:06.512Z,70.90
2018-06-22T07:13:13.335Z,70.70
2018-06-22T07:15:20.896Z,70.30
2018-06-22T07:17:28.460Z,70.60
2018-06-22T07:18:31.872Z,70.70
2018-06-22T07:19:35.247Z,70.80
2018-06-22T07:20:39.571Z,71.10
2018-06-22T07:21:42.983Z,71.00
2018-06-22T07:22:46.363Z,70.80
2018-06-22T07:24:52.868Z,70.70
2018-06-22T07:25:57.380Z,70.70
2018-06-22T07:27:00.783Z,70.80
2018-06-22T07:28:04.167Z,70.90
2018-06-22T07:29:07.585Z,71.10
2018-06-22T07:31:16.360Z,71.30
2018-06-22T07:32:19.948Z,70.20
2018-06-22T07:33:23.499Z,70.80
2018-06-22T07:34:27.167Z,69.50
2018-06-22T07:35:31.677Z,69.70
2018-06-22T07:38:41.231Z,69.50
2018-06-22T07:40:49.322Z,69.90
2018-06-22T07:42:55.784Z,69.50
2018-06-22T07:43:59.189Z,70.20
2018-06-22T07:46:06.693Z,69.30
2018-06-22T07:47:10.109Z,68.90
2018-06-22T07:48:13.511Z,69.30
2018-06-22T07:49:16.951Z,69.30
2018-06-22T07:50:22.202Z,69.10
2018-06-22T07:51:26.732Z,68.80
2018-06-22T07:52:30.199Z,68.60
2018-06-22T07:53:33.573Z,68.00
2018-06-22T07:54:37.098Z,67.60
2018-06-22T07:55:41.676Z,67.60
2018-06-22T07:56:45.100Z,67.20
2018-06-22T07:57:48.521Z,67.30
2018-06-22T07:58:51.927Z,67.20
2018-06-22T08:00:59.621Z,66.70
2018-06-22T08:02:03.031Z,66.70
2018-06-22T08:03:06.424Z,66.90
2018-06-22T08:04:09.820Z,67.10
2018-06-22T08:05:14.345Z,67.50
2018-06-22T08:07:21.983Z,67.40
2018-06-22T08:08:25.372Z,67.40
2018-06-22T08:09:28.739Z,67.30
2018-06-22T08:11:35.919Z,67.00
2018-06-22T08:17:56.640Z,66.80
2018-06-22T08:19:00.016Z,66.60
2018-06-22T08:20:03.817Z,66.40
2018-06-22T08:22:11.474Z,66.40
2018-06-22T08:23:14.859Z,65.60
2018-06-22T08:24:18.237Z,64.90
2018-06-22T08:25:22.504Z,64.70
2018-06-22T08:26:26.991Z,64.60
2018-06-22T08:28:33.634Z,64.50
2018-06-22T08:29:37.029Z,65.10
2018-06-22T08:30:41.472Z,64.40
2018-06-22T08:33:51.044Z,61.70
2018-06-22T08:34:54.455Z,61.40
2018-06-22T08:35:58.948Z,60.40
2018-06-22T08:37:02.372Z,60.50
2018-06-22T08:38:06.303Z,60.90
2018-06-22T08:40:14.672Z,61.40
2018-06-22T08:41:19.299Z,60.40
2018-06-22T08:42:22.803Z,60.30
2018-06-22T08:45:33.524Z,59.90
2018-06-22T08:46:36.955Z,60.00
2018-06-22T08:47:40.341Z,60.40
2018-06-22T08:48:43.746Z,60.50
2018-06-22T08:49:47.147Z,60.50
2018-06-22T08:50:51.540Z,60.50
2018-06-22T08:51:54.996Z,60.10
2018-06-22T08:52:58.384Z,59.50
2018-06-22T08:54:01.785Z,59.80
2018-06-22T08:55:06.083Z,59.50
2018-06-22T08:56:10.484Z,59.60
2018-06-22T08:57:13.891Z,60.00
2018-06-22T08:58:17.276Z,59.90
2018-06-22T08:59:20.676Z,60.10
2018-06-22T09:01:28.907Z,60.50
2018-06-22T09:02:32.291Z,60.70
2018-06-22T09:03:35.711Z,60.00
2018-06-22T09:04:39.419Z,60.30
2018-06-22T09:05:44.088Z,60.80
2018-06-22T09:06:47.499Z,61.30
2018-06-22T09:07:50.879Z,61.70
2018-06-22T09:08:54.475Z,61.70
2018-06-22T09:09:57.876Z,61.20
2018-06-22T09:11:02.725Z,60.80
2018-06-22T09:12:06.115Z,60.60
2018-06-22T09:16:20.570Z,59.00
2018-06-22T09:19:30.231Z,59.60
2018-06-22T09:20:34.743Z,59.70
2018-06-22T09:21:38.392Z,59.70
2018-06-22T09:22:41.772Z,59.60
2018-06-22T09:23:45.263Z,59.40
2018-06-22T09:24:48.643Z,59.20
2018-06-22T09:25:53.098Z,58.90
2018-06-22T09:26:56.502Z,59.00
2018-06-22T09:27:59.879Z,59.10
2018-06-22T09:30:07.334Z,59.40
2018-06-22T09:31:11.800Z,59.30
2018-06-22T09:32:15.218Z,59.30
2018-06-22T09:33:18.603Z,59.00
2018-06-22T09:34:21.983Z,58.90
2018-06-22T09:35:27.514Z,58.40
2018-06-22T09:36:31.141Z,58.20
2018-06-22T09:37:34.523Z,58.30
2018-06-22T09:38:37.912Z,58.00
2018-06-22T09:39:41.296Z,58.00
2018-06-22T09:40:45.893Z,57.90
2018-06-22T09:41:49.313Z,58.20
2018-06-22T09:43:55.808Z,57.20
2018-06-22T09:44:59.228Z,57.30
2018-06-22T09:46:03.639Z,57.10
2018-06-22T09:47:07.749Z,57.50
2018-06-22T09:48:11.135Z,58.10
2018-06-22T09:49:14.523Z,57.50
2018-06-22T09:50:19.286Z,57.40
2018-06-22T09:51:23.492Z,57.50
2018-06-22T09:52:26.932Z,57.80
2018-06-22T09:53:30.316Z,58.00
2018-06-22T09:54:33.704Z,58.00
2018-06-22T09:55:38.080Z,58.20
2018-06-22T09:56:41.484Z,58.40
2018-06-22T09:57:44.886Z,58.30
2018-06-22T09:58:48.264Z,58.10
2018-06-22T09:59:51.647Z,57.80
2018-06-22T10:00:56.125Z,57.80
2018-06-22T10:01:59.543Z,57.70
2018-06-22T10:03:02.944Z,57.80
2018-06-22T10:04:06.528Z,58.10
2018-06-22T10:05:11.021Z,58.40
2018-06-22T10:06:15.557Z,58.50
2018-06-22T10:07:18.958Z,57.70
2018-06-22T10:08:22.394Z,57.60
2018-06-22T10:09:26.045Z,57.60
2018-06-22T10:10:30.474Z,57.40
2018-06-22T10:11:33.882Z,57.90
2018-06-22T10:12:37.392Z,57.40
2018-06-22T10:13:40.788Z,57.30
2018-06-22T10:14:44.177Z,57.10
2018-06-22T10:15:51.909Z,57.00
2018-06-22T10:16:55.301Z,57.10
2018-06-22T10:17:59.129Z,57.20
2018-06-22T10:19:02.527Z,57.20
2018-06-22T10:20:07.453Z,57.50
2018-06-22T10:21:11.976Z,57.80
2018-06-22T10:23:18.476Z,58.40
2018-06-22T10:24:21.870Z,58.00
2018-06-22T10:25:26.574Z,58.10
2018-06-22T10:26:30.432Z,57.90
2018-06-22T10:27:33.815Z,57.80
2018-06-22T10:28:37.198Z,57.80
2018-06-22T10:29:40.596Z,57.90
2018-06-22T10:30:46.101Z,57.80
2018-06-22T10:31:49.568Z,58.00
2018-06-22T10:32:52.954Z,58.00
2018-06-22T10:33:56.399Z,58.00
2018-06-22T10:34:59.795Z,57.90
2018-06-22T10:36:04.845Z,57.80
2018-06-22T10:37:08.251Z,58.00
2018-06-22T10:38:11.631Z,57.40
2018-06-22T10:39:15.056Z,57.40
2018-06-22T10:40:19.527Z,57.30
2018-06-22T10:41:24.105Z,57.40
2018-06-22T10:42:27.515Z,57.50
2018-06-22T10:43:30.897Z,57.40
2018-06-22T10:44:34.283Z,57.30
2018-06-22T10:45:38.825Z,57.00
2018-06-22T10:46:42.294Z,56.80
2018-06-22T10:47:45.679Z,56.90
2018-06-22T10:48:49.122Z,56.90
2018-06-22T10:49:52.507Z,56.90
2018-06-22T10:50:57.217Z,56.30
2018-06-22T10:55:10.884Z,56.60
2018-06-22T10:57:18.147Z,56.50
2018-06-22T10:58:21.535Z,56.50
2018-06-22T10:59:24.916Z,56.10
2018-06-22T11:00:29.431Z,56.10
2018-06-22T11:01:32.879Z,56.10
2018-06-22T11:02:36.403Z,56.20
2018-06-22T11:03:39.800Z,56.30
2018-06-22T11:04:43.187Z,56.30
2018-06-22T11:05:47.564Z,56.20
2018-06-22T11:06:50.977Z,56.30
2018-06-22T11:07:54.367Z,56.00
2018-06-22T11:08:57.742Z,55.70
2018-06-22T11:10:01.319Z,55.50
2018-06-22T11:11:05.693Z,55.50
2018-06-22T11:12:09.128Z,55.30
2018-06-22T11:13:12.568Z,55.10
2018-06-22T11:14:15.953Z,55.40
2018-06-22T11:15:20.408Z,55.30
2018-06-22T11:16:24.504Z,55.40
2018-06-22T11:17:27.915Z,55.30
2018-06-22T11:18:31.352Z,55.20
2018-06-22T11:19:34.736Z,55.00
2018-06-22T11:20:39.322Z,54.60
2018-06-22T11:21:42.739Z,54.60
2018-06-22T11:22:46.153Z,54.50
2018-06-22T11:23:49.540Z,54.80
2018-06-22T11:24:53.022Z,55.10
2018-06-22T11:27:00.251Z,55.50
2018-06-22T11:29:06.723Z,55.00
2018-06-22T11:31:15.001Z,54.90
2018-06-22T11:33:21.539Z,54.20
2018-06-22T11:34:24.919Z,54.20
2018-06-22T11:35:29.487Z,54.00
2018-06-22T11:36:32.988Z,54.00
2018-06-22T11:37:36.363Z,53.80
2018-06-22T11:39:42.853Z,53.00
2018-06-22T11:40:47.580Z,53.10
2018-06-22T11:41:51.011Z,53.80
2018-06-22T11:42:54.389Z,53.50
2018-06-22T11:43:57.831Z,53.90
2018-06-22T11:45:01.216Z,54.20
2018-06-22T11:46:06.176Z,54.50
2018-06-22T11:47:09.587Z,55.00
2018-06-22T11:50:20.251Z,58.50
2018-06-22T11:51:24.088Z,58.50
2018-06-22T11:52:27.493Z,59.10
2018-06-22T11:53:30.868Z,59.80
2018-06-22T11:54:34.291Z,59.60
2018-06-22T11:55:38.792Z,59.10
2018-06-22T11:58:48.739Z,59.80
2018-06-22T11:59:52.147Z,59.70
2018-06-22T12:00:56.650Z,59.10
2018-06-22T12:03:03.136Z,58.40
2018-06-22T12:04:06.539Z,58.70
2018-06-22T12:06:15.496Z,58.50
2018-06-22T12:07:18.922Z,58.20
2018-06-22T12:08:22.295Z,57.90
2018-06-22T12:09:25.959Z,57.60
2018-06-22T12:10:30.344Z,57.60
2018-06-22T12:11:33.760Z,57.50
2018-06-22T12:12:37.207Z,56.40
2018-06-22T12:13:40.579Z,56.00
2018-06-22T12:15:48.979Z,55.00
2018-06-22T12:18:58.599Z,55.70
2018-06-22T12:20:02.009Z,56.20
2018-06-22T12:21:07.052Z,56.20
2018-06-22T12:22:10.936Z,57.20
2018-06-22T12:23:14.375Z,58.70
2018-06-22T12:26:27.370Z,59.90
2018-06-22T12:27:30.801Z,60.10
2018-06-22T12:28:34.175Z,60.20
2018-06-22T12:29:37.546Z,59.70
2018-06-22T12:30:41.983Z,59.50
2018-06-22T12:31:45.387Z,59.10
2018-06-22T12:32:49.079Z,58.90
2018-06-22T12:33:52.455Z,59.00
2018-06-22T12:34:55.936Z,58.90
2018-06-22T12:36:00.462Z,59.00
2018-06-22T12:40:16.721Z,57.60
2018-06-22T12:41:21.503Z,57.20
2018-06-22T12:42:24.893Z,56.00
2018-06-22T12:43:28.279Z,55.50
2018-06-22T12:44:31.659Z,55.30
2018-06-22T12:45:36.092Z,55.00
2018-06-22T12:46:39.635Z,54.60
2018-06-22T12:47:43.039Z,54.70
2018-06-22T12:48:46.640Z,54.00
2018-06-22T12:49:50.020Z,53.20
2018-06-22T12:50:54.570Z,53.40
2018-06-22T12:51:58.009Z,53.80
2018-06-22T12:53:01.391Z,53.70
2018-06-22T12:54:04.778Z,53.90
2018-06-22T12:55:09.117Z,54.00
2018-06-22T12:56:13.602Z,54.20
2018-06-22T12:57:17.059Z,54.40
2018-06-22T12:58:20.436Z,54.40
2018-06-22T12:59:23.823Z,54.60
2018-06-22T13:00:28.198Z,54.80
2018-06-22T13:01:31.695Z,55.10
2018-06-22T13:06:48.064Z,55.60
2018-06-22T13:07:51.448Z,56.30
2018-06-22T13:08:54.860Z,58.50
2018-06-22T13:09:58.239Z,62.40
2018-06-22T13:11:02.713Z,63.20
2018-06-22T13:12:06.216Z,64.80
2018-06-22T13:13:09.607Z,66.40
2018-06-22T13:14:12.992Z,66.20
2018-06-22T13:15:18.353Z,65.90
2018-06-22T13:17:25.727Z,66.70
2018-06-22T13:18:29.123Z,67.60
2018-06-22T13:19:32.535Z,67.70
2018-06-22T13:21:48.983Z,67.50
2018-06-22T13:22:52.409Z,68.50
2018-06-22T13:24:58.859Z,70.00
2018-06-22T13:26:04.061Z,70.40
2018-06-22T13:27:07.472Z,70.10
2018-06-22T13:28:10.877Z,70.30
2018-06-22T13:30:19.172Z,70.70
2018-06-22T13:32:26.419Z,69.70
2018-06-22T13:33:30.685Z,69.10
2018-06-22T13:35:38.215Z,67.70
2018-06-22T13:36:41.674Z,67.70
2018-06-22T13:37:45.078Z,68.10
2018-06-22T13:38:48.468Z,66.20
2018-06-22T13:39:51.893Z,65.80
2018-06-22T13:42:00.055Z,66.40
2018-06-22T13:43:03.439Z,66.10
2018-06-22T13:44:07.060Z,65.50
2018-06-22T13:45:11.481Z,65.00
2018-06-22T13:47:18.619Z,65.00
2018-06-22T13:48:22.017Z,64.50
2018-06-22T13:49:25.484Z,64.60
2018-06-22T13:50:29.805Z,64.80
2018-06-22T13:51:33.403Z,64.80
2018-06-22T13:52:36.803Z,64.80
2018-06-22T13:53:40.215Z,64.50
2018-06-22T13:54:43.616Z,64.10
2018-06-22T13:56:50.854Z,63.30
2018-06-22T13:57:54.176Z,62.10
2018-06-22T14:00:00.696Z,61.30
2018-06-22T14:01:05.208Z,61.10
2018-06-22T14:02:08.683Z,60.70
2018-06-22T14:03:12.076Z,60.10
2018-06-22T14:04:20.911Z,59.70
2018-06-22T14:05:31.525Z,58.90
2018-06-22T14:06:40.379Z,58.60
2018-06-22T14:07:43.759Z,57.80
2018-06-22T14:08:47.140Z,56.10
2018-06-22T14:09:50.522Z,54.90
2018-06-22T14:10:54.948Z,54.90
2018-06-22T14:15:08.814Z,54.20
2018-06-22T14:16:13.374Z,53.10
2018-06-22T14:17:16.788Z,52.60
2018-06-22T14:18:20.175Z,52.80
2018-06-22T14:19:23.575Z,52.80
2018-06-22T14:20:27.498Z,52.50
2018-06-22T14:21:30.935Z,52.60
2018-06-22T14:22:34.323Z,53.10
2018-06-22T14:23:37.695Z,53.30
2018-06-22T14:24:41.096Z,53.40
2018-06-22T14:25:45.508Z,53.50
2018-06-22T14:26:48.980Z,53.80
2018-06-22T14:27:52.367Z,54.30
2018-06-22T14:28:55.755Z,54.80
2018-06-22T14:29:59.131Z,55.30
2018-06-22T14:31:04.059Z,56.20
2018-06-22T14:32:07.475Z,56.80
2018-06-22T14:33:10.868Z,57.30
2018-06-22T14:34:14.242Z,57.90
2018-06-22T14:35:18.865Z,58.00
2018-06-22T14:37:25.877Z,58.40
2018-06-22T14:38:29.275Z,58.70
2018-06-22T14:39:32.651Z,59.40
2018-06-22T14:41:41.004Z,59.20
2018-06-22T14:42:44.400Z,58.30
2018-06-22T14:43:47.783Z,58.20
2018-06-22T14:44:51.168Z,57.40
2018-06-22T14:45:55.955Z,57.10
2018-06-22T14:46:59.366Z,56.60
2018-06-22T14:48:02.760Z,56.40
2018-06-22T14:49:06.148Z,56.40
2018-06-22T14:50:16.847Z,56.50
2018-06-22T14:51:21.904Z,56.00
2018-06-22T14:52:25.355Z,55.50
2018-06-22T14:54:42.749Z,54.80
2018-06-22T14:55:53.051Z,54.50
2018-06-22T14:57:01.864Z,54.60
2018-06-22T14:58:10.660Z,54.80
2018-06-22T14:59:19.255Z,54.90
2018-06-22T15:01:37.023Z,54.00
2018-06-22T15:02:45.896Z,54.00
2018-06-22T15:03:54.779Z,53.50
2018-06-22T15:05:03.865Z,51.70
2018-06-22T15:06:13.448Z,52.10
2018-06-22T15:08:25.443Z,51.80
2018-06-22T15:09:28.827Z,51.90
2018-06-22T15:10:33.299Z,51.90
2018-06-22T15:11:36.907Z,52.30
2018-06-22T15:12:40.284Z,52.20
2018-06-22T15:13:43.719Z,52.20
2018-06-22T15:14:47.095Z,52.10
2018-06-22T15:15:51.665Z,51.40
2018-06-22T15:16:55.208Z,51.70
2018-06-22T15:17:58.556Z,51.60
2018-06-22T15:19:01.960Z,51.30
2018-06-22T15:20:06.975Z,50.80
2018-06-22T15:21:11.539Z,50.80
2018-06-22T15:22:14.951Z,50.70
2018-06-22T15:23:18.351Z,50.80
2018-06-22T15:24:21.772Z,50.70
2018-06-22T15:25:26.637Z,50.60
2018-06-22T15:26:30.421Z,50.30
2018-06-22T15:27:33.807Z,50.20
2018-06-22T15:28:37.551Z,50.20
2018-06-22T15:29:40.971Z,50.30
2018-06-22T15:30:45.396Z,50.50
2018-06-22T15:32:58.547Z,50.10
2018-06-22T15:34:07.267Z,49.70
2018-06-22T15:35:16.665Z,49.50
2018-06-22T15:36:26.091Z,48.30
2018-06-22T15:37:34.919Z,48.20
2018-06-22T15:38:43.756Z,47.50
2018-06-22T15:39:52.491Z,46.80
2018-06-22T15:42:03.876Z,46.80
2018-06-22T15:43:12.715Z,47.10
2018-06-22T15:44:21.556Z,46.50
2018-06-22T15:45:34.130Z,46.30
2018-06-22T15:46:42.960Z,46.50
2018-06-22T15:47:51.779Z,46.90
2018-06-22T15:50:03.896Z,47.10
2018-06-22T15:51:13.845Z,47.10
2018-06-22T15:52:22.664Z,47.60
2018-06-22T15:53:31.434Z,47.60
2018-06-22T15:54:40.156Z,47.70
2018-06-22T15:55:47.002Z,48.10
2018-06-22T15:56:50.415Z,48.40
2018-06-22T15:57:53.803Z,47.90
2018-06-22T15:58:57.382Z,47.90
2018-06-22T16:00:00.778Z,47.70
2018-06-22T16:01:05.877Z,47.40
2018-06-22T16:02:14.735Z,46.80
2018-06-22T16:03:23.531Z,46.80
2018-06-22T16:04:26.907Z,46.50
2018-06-22T16:05:31.351Z,46.30
2018-06-22T16:06:34.787Z,45.90
2018-06-22T16:07:38.626Z,45.80
2018-06-22T16:08:42.016Z,45.40
2018-06-22T16:09:50.839Z,45.40
2018-06-22T16:10:55.300Z,45.00
2018-06-22T16:12:04.395Z,45.10
2018-06-22T16:13:13.119Z,44.70
2018-06-22T16:14:21.843Z,44.60
2018-06-22T16:15:31.387Z,45.10
2018-06-22T16:16:40.115Z,45.40
2018-06-22T16:17:48.906Z,46.10
2018-06-22T16:18:57.619Z,45.70
2018-06-22T16:20:06.656Z,45.70
2018-06-22T16:24:41.575Z,45.50